Time;durP1;ratioP1;P1;durP2;ratioP2;P2;SDS_P1;SDS_P2;PMS_P1;PMS_P2;Temp;Humidity;BMP_temperature;BMP_pressure;BME280_temperature;BME280_humidity;BME280_pressure;Samples;Min_cycle;Max_cycle;Signal;HPM_P1;HPM_P2
2021/04/25 00:02:09;;;;;;;22.60;10.50;;;5.50;99.90;;;;;;4416417;28;657838;-67
2021/04/25 00:04:58;;;;;;;24.93;10.53;;;5.50;99.90;;;;;;4444380;28;658159;-67
2021/04/25 00:07:45;;;;;;;32.00;10.83;;;5.50;99.90;;;;;;4405843;28;658263;-67
2021/04/25 00:10:32;;;;;;;27.57;11.07;;;5.40;99.90;;;;;;4415034;28;658179;-68
2021/04/25 00:13:19;;;;;;;24.97;10.03;;;5.40;99.90;;;;;;4434877;28;658625;-67
2021/04/25 00:16:06;;;;;;;27.80;10.00;;;5.30;99.90;;;;;;4413933;28;658067;-67
2021/04/25 00:18:53;;;;;;;28.23;10.23;;;5.20;99.90;;;;;;4397318;28;657162;-67
2021/04/25 00:21:41;;;;;;;31.58;10.60;;;5.20;99.90;;;;;;4449663;28;657856;-67
2021/04/25 00:24:28;;;;;;;22.83;9.57;;;5.10;99.90;;;;;;4411972;28;657903;-67
2021/04/25 00:27:15;;;;;;;30.87;10.70;;;5.10;99.90;;;;;;4437858;28;658070;-67
2021/04/25 00:30:03;;;;;;;26.93;10.90;;;5.10;99.90;;;;;;4401625;28;658024;-67
2021/04/25 00:32:50;;;;;;;26.70;10.30;;;5.10;99.90;;;;;;4448270;28;658790;-67
2021/04/25 00:35:37;;;;;;;28.58;10.85;;;5.00;99.90;;;;;;4415585;28;657507;-68
2021/04/25 00:38:25;;;;;;;22.55;10.25;;;5.00;99.90;;;;;;4439688;28;658371;-67
2021/04/25 00:41:12;;;;;;;30.40;10.40;;;5.00;99.90;;;;;;4412635;28;657317;-67
2021/04/25 00:43:59;;;;;;;28.13;10.43;;;5.00;99.90;;;;;;4417808;28;658043;-67
2021/04/25 00:46:47;;;;;;;26.50;10.63;;;4.90;99.90;;;;;;4414079;28;658952;-67
2021/04/25 00:49:34;;;;;;;29.47;11.10;;;4.90;99.90;;;;;;4415860;28;657990;-67
2021/04/25 00:52:21;;;;;;;30.10;10.77;;;4.90;99.90;;;;;;4424058;28;658265;-66
2021/04/25 00:55:10;;;;;;;28.67;10.80;;;4.80;99.90;;;;;;4424590;28;658038;-67
2021/04/25 00:57:57;;;;;;;27.53;10.87;;;4.80;99.90;;;;;;4419150;28;657902;-69
2021/04/25 01:00:45;;;;;;;28.43;11.37;;;4.80;99.90;;;;;;4439468;28;658660;-66
2021/04/25 01:03:32;;;;;;;24.27;10.20;;;4.80;99.90;;;;;;4424941;28;657410;-66
2021/04/25 01:06:19;;;;;;;23.23;9.80;;;4.90;99.90;;;;;;4415807;28;658170;-67
2021/04/25 01:09:06;;;;;;;27.07;10.00;;;4.80;99.90;;;;;;4444439;28;657338;-67
2021/04/25 01:11:54;;;;;;;24.73;10.47;;;4.80;99.90;;;;;;4413729;28;658137;-66
2021/04/25 01:14:42;;;;;;;26.83;10.10;;;4.70;99.90;;;;;;4430583;28;657744;-67
2021/04/25 01:17:28;;;;;;;24.37;10.00;;;4.70;99.90;;;;;;4418884;28;657864;-67
2021/04/25 01:20:17;;;;;;;26.93;9.97;;;4.70;99.90;;;;;;4434616;28;658552;-67
2021/04/25 01:23:05;;;;;;;22.87;9.60;;;4.70;99.90;;;;;;4411924;28;658061;-66
2021/04/25 01:25:52;;;;;;;21.93;8.07;;;4.60;99.90;;;;;;4423650;28;656198;-68
2021/04/25 01:28:39;;;;;;;23.87;7.93;;;4.60;99.90;;;;;;4429434;28;656896;-67
2021/04/25 01:31:26;;;;;;;21.93;9.30;;;4.50;99.90;;;;;;4448121;28;656609;-66
2021/04/25 01:34:13;;;;;;;25.65;9.45;;;4.40;99.90;;;;;;4417873;28;656915;-67
2021/04/25 01:37:00;;;;;;;26.33;8.93;;;4.40;99.90;;;;;;4435684;28;657831;-67
2021/04/25 01:39:49;;;;;;;18.33;7.90;;;4.40;99.90;;;;;;4411973;28;656401;-67
2021/04/25 01:42:36;;;;;;;18.63;7.50;;;4.40;99.90;;;;;;4437965;28;657509;-67
2021/04/25 01:45:23;;;;;;;19.53;7.20;;;4.40;99.90;;;;;;4426644;28;656507;-67
2021/04/25 01:48:10;;;;;;;18.07;6.03;;;4.30;99.90;;;;;;4431231;28;656870;-67
2021/04/25 01:50:57;;;;;;;20.63;6.50;;;4.30;99.90;;;;;;4411691;28;656451;-68
2021/04/25 01:53:44;;;;;;;17.37;6.40;;;4.20;99.90;;;;;;4436885;28;657574;-66
2021/04/25 01:56:32;;;;;;;20.50;6.73;;;4.10;99.90;;;;;;4427889;28;656971;-67
2021/04/25 01:59:19;;;;;;;17.27;6.70;;;4.10;99.90;;;;;;4424814;28;657583;-67
2021/04/25 02:02:06;;;;;;;17.93;5.27;;;4.10;99.90;;;;;;4441400;28;656660;-67
2021/04/25 02:04:54;;;;;;;18.13;6.20;;;4.00;99.90;;;;;;4410377;28;656837;-66
2021/04/25 02:07:41;;;;;;;13.87;6.10;;;4.00;99.90;;;;;;4425709;28;657466;-67
2021/04/25 02:10:28;;;;;;;15.97;6.13;;;4.00;99.90;;;;;;4413994;28;656828;-67
2021/04/25 02:13:16;;;;;;;14.47;5.53;;;3.90;99.90;;;;;;4418776;28;657900;-66
2021/04/25 02:16:04;;;;;;;16.93;6.40;;;3.90;99.90;;;;;;4413997;28;656734;-68
2021/04/25 02:18:51;;;;;;;15.20;6.10;;;3.90;99.90;;;;;;4432276;28;657980;-67
2021/04/25 02:21:38;;;;;;;17.93;6.10;;;3.80;99.90;;;;;;4414689;28;656600;-67
2021/04/25 02:24:25;;;;;;;13.10;5.77;;;3.80;99.90;;;;;;4433112;28;657842;-67
2021/04/25 02:27:12;;;;;;;15.93;6.40;;;3.80;99.90;;;;;;4411527;28;657049;-68
2021/04/25 02:30:00;;;;;;;15.57;6.13;;;3.80;99.90;;;;;;4433095;28;656263;-67
2021/04/25 02:32:47;;;;;;;24.25;6.35;;;3.80;99.90;;;;;;4412990;28;657316;-68
2021/04/25 02:35:35;;;;;;;15.37;6.43;;;3.70;99.90;;;;;;4436253;28;657133;-67
2021/04/25 02:38:22;;;;;;;20.83;6.80;;;3.70;99.90;;;;;;4421763;28;656541;-68
2021/04/25 02:41:09;;;;;;;17.97;7.13;;;3.60;99.90;;;;;;4434750;28;656726;-68
2021/04/25 02:43:56;;;;;;;16.33;6.82;;;3.60;99.90;;;;;;4425105;28;656533;-66
2021/04/25 02:46:44;;;;;;;23.00;7.77;;;3.60;99.90;;;;;;4403917;28;656722;-66
2021/04/25 02:49:31;;;;;;;19.65;7.35;;;3.50;99.90;;;;;;4429860;28;656599;-67
2021/04/25 02:52:18;;;;;;;20.07;7.80;;;3.50;99.90;;;;;;4404912;28;657010;-67
2021/04/25 02:55:07;;;;;;;17.57;6.87;;;3.50;99.90;;;;;;4435426;28;657501;-66
2021/04/25 02:57:54;;;;;;;17.63;6.77;;;3.40;99.90;;;;;;4417494;28;657531;-66
2021/04/25 03:00:41;;;;;;;18.77;6.87;;;3.30;99.90;;;;;;4446517;28;656536;-66
2021/04/25 03:03:29;;;;;;;23.27;7.03;;;3.20;99.90;;;;;;4429362;28;656557;-67
2021/04/25 03:06:16;;;;;;;21.80;6.73;;;3.20;99.90;;;;;;4448543;28;656406;-67
2021/04/25 03:09:03;;;;;;;15.57;7.07;;;3.10;99.90;;;;;;4431107;28;656691;-67
2021/04/25 03:11:50;;;;;;;18.80;7.57;;;3.00;99.90;;;;;;4443677;28;657013;-67
2021/04/25 03:14:37;;;;;;;16.73;7.47;;;3.00;99.90;;;;;;4438431;28;656582;-68
2021/04/25 03:17:24;;;;;;;17.05;7.32;;;3.00;99.90;;;;;;4452254;28;657043;-67
2021/04/25 03:20:13;;;;;;;20.30;7.20;;;3.00;99.90;;;;;;4444622;28;657184;-67
2021/04/25 03:23:01;;;;;;;21.43;6.67;;;3.00;99.90;;;;;;4428366;28;658022;-66
2021/04/25 03:25:48;;;;;;;19.33;7.33;;;2.90;99.90;;;;;;4430493;28;656394;-66
2021/04/25 03:28:35;;;;;;;16.70;7.23;;;2.90;99.90;;;;;;4449729;28;657164;-67
2021/04/25 03:31:22;;;;;;;16.20;7.30;;;2.80;99.90;;;;;;4445637;28;656842;-68
2021/04/25 03:34:09;;;;;;;23.97;7.27;;;2.90;99.90;;;;;;4448058;28;657026;-66
2021/04/25 03:36:57;;;;;;;21.43;6.53;;;2.80;99.90;;;;;;4448322;28;656728;-66
2021/04/25 03:39:44;;;;;;;38.77;13.33;;;2.80;99.90;;;;;;4426220;28;657340;-66
2021/04/25 03:42:31;;;;;;;36.07;12.50;;;2.80;99.90;;;;;;4446528;28;657668;-67
2021/04/25 03:45:18;;;;;;;38.43;14.50;;;2.90;99.90;;;;;;4428166;28;658187;-67
2021/04/25 03:48:05;;;;;;;33.57;13.33;;;2.90;99.90;;;;;;4441813;28;658283;-67
2021/04/25 03:50:52;;;;;;;28.43;12.23;;;3.00;99.90;;;;;;4419748;28;657228;-67
2021/04/25 03:53:40;;;;;;;34.90;12.48;;;3.10;99.90;;;;;;4450688;28;658373;-66
2021/04/25 03:56:27;;;;;;;35.43;13.80;;;3.10;99.90;;;;;;4427906;28;658389;-69
2021/04/25 03:59:14;;;;;;;36.05;13.70;;;3.20;99.90;;;;;;4451443;28;658184;-67
2021/04/25 04:02:01;;;;;;;42.10;13.03;;;3.30;99.90;;;;;;4435861;28;657790;-66
2021/04/25 04:04:48;;;;;;;42.53;18.00;;;3.30;99.90;;;;;;4408121;28;657513;-66
2021/04/25 04:07:35;;;;;;;52.85;17.33;;;3.40;99.90;;;;;;4447098;28;659515;-66
2021/04/25 04:10:23;;;;;;;42.55;15.70;;;3.50;99.90;;;;;;4407666;28;658318;-68
2021/04/25 04:13:10;;;;;;;44.17;17.20;;;3.60;99.90;;;;;;4432784;28;657974;-66
2021/04/25 04:15:57;;;;;;;42.30;16.57;;;3.60;99.90;;;;;;4420305;28;658437;-67
2021/04/25 04:18:44;;;;;;;44.03;18.90;;;3.70;99.90;;;;;;4422798;28;658316;-66
2021/04/25 04:21:32;;;;;;;37.23;16.20;;;3.70;99.90;;;;;;4428605;28;657154;-67
2021/04/25 04:24:19;;;;;;;42.10;16.07;;;3.80;99.90;;;;;;4407599;28;658405;-66
2021/04/25 04:27:07;;;;;;;39.80;14.80;;;3.80;99.90;;;;;;4433634;28;657940;-67
2021/04/25 04:29:54;;;;;;;41.00;17.27;;;3.90;99.90;;;;;;4412201;28;658578;-67
2021/04/25 04:32:41;;;;;;;46.67;17.60;;;3.90;99.90;;;;;;4422872;28;657285;-66
2021/04/25 04:35:28;;;;;;;46.43;17.80;;;4.00;99.90;;;;;;4403698;28;657800;-66
2021/04/25 04:38:15;;;;;;;47.27;19.10;;;4.10;99.90;;;;;;4431429;28;657543;-66
2021/04/25 04:41:02;;;;;;;41.67;16.10;;;4.30;99.90;;;;;;4425998;28;657610;-68
2021/04/25 04:43:50;;;;;;;44.93;17.87;;;4.30;99.90;;;;;;4442359;28;657114;-66
2021/04/25 04:46:37;;;;;;;50.00;20.30;;;4.40;99.90;;;;;;4406281;28;657409;-69
2021/04/25 04:49:24;;;;;;;54.13;22.50;;;4.50;99.90;;;;;;4428555;28;657589;-67
2021/04/25 04:52:11;;;;;;;58.40;22.20;;;4.60;99.90;;;;;;4431917;28;657519;-66
2021/04/25 04:54:58;;;;;;;58.07;21.93;;;4.80;99.90;;;;;;4402883;28;658329;-66
2021/04/25 04:57:45;;;;;;;58.97;23.40;;;4.90;99.90;;;;;;4433145;28;659170;-66
2021/04/25 05:00:33;;;;;;;58.20;23.73;;;5.10;99.90;;;;;;4397622;28;658074;-69
2021/04/25 05:03:20;;;;;;;65.73;24.63;;;5.10;99.90;;;;;;4440140;28;658325;-67
2021/04/25 05:06:07;;;;;;;55.10;23.07;;;5.30;99.90;;;;;;4425162;28;657191;-68
2021/04/25 05:08:54;;;;;;;56.23;22.70;;;5.30;99.90;;;;;;4443835;28;657419;-66
2021/04/25 05:11:41;;;;;;;65.43;25.50;;;5.40;99.90;;;;;;4426301;28;657560;-66
2021/04/25 05:14:28;;;;;;;58.03;22.67;;;5.40;99.90;;;;;;4425154;28;657768;-67
2021/04/25 05:17:16;;;;;;;53.78;21.95;;;5.40;99.90;;;;;;4423634;28;658579;-66
2021/04/25 05:20:04;;;;;;;53.83;21.47;;;5.50;99.90;;;;;;4410604;28;657569;-67
2021/04/25 05:22:51;;;;;;;49.10;19.90;;;5.60;99.90;;;;;;4421670;28;657726;-66
2021/04/25 05:25:38;;;;;;;78.97;27.10;;;5.60;99.90;;;;;;4411481;28;657701;-67
2021/04/25 05:28:25;;;;;;;49.47;19.97;;;5.70;99.90;;;;;;4434615;28;658618;-66
2021/04/25 05:31:12;;;;;;;56.17;20.57;;;5.80;99.90;;;;;;4434341;28;657123;-67
2021/04/25 05:33:59;;;;;;;53.50;19.37;;;5.80;99.90;;;;;;4402718;28;657347;-66
2021/04/25 05:36:46;;;;;;;52.27;19.87;;;5.80;99.90;;;;;;4434241;28;657800;-67
2021/04/25 05:39:33;;;;;;;50.47;20.17;;;5.90;99.90;;;;;;4419093;28;657467;-66
2021/04/25 05:42:20;;;;;;;52.43;22.47;;;5.90;99.90;;;;;;4425130;28;659033;-67
2021/04/25 05:45:19;;;;;;;42.55;16.50;;;6.00;99.90;;;;;;4413437;28;657329;-69
2021/04/25 05:48:07;;;;;;;53.77;19.97;;;6.00;99.90;;;;;;4419851;28;658301;-68
2021/04/25 05:50:55;;;;;;;45.13;16.23;;;6.10;99.90;;;;;;4423700;28;658608;-67
2021/04/25 05:53:42;;;;;;;43.97;15.00;;;6.20;99.90;;;;;;4419630;28;657536;-69
2021/04/25 05:56:30;;;;;;;49.70;16.47;;;6.40;99.90;;;;;;4439891;28;657641;-67
2021/04/25 05:59:17;;;;;;;43.43;15.20;;;6.70;99.90;;;;;;4425577;28;657368;-69
2021/04/25 06:02:04;;;;;;;48.70;16.10;;;6.90;99.90;;;;;;4432047;28;658529;-67
2021/04/25 06:04:51;;;;;;;60.97;19.97;;;6.90;99.90;;;;;;4425995;28;657684;-66
2021/04/25 06:07:39;;;;;;;44.30;16.40;;;7.10;99.90;;;;;;4414236;28;657654;-66
2021/04/25 06:10:27;;;;;;;38.97;14.23;;;7.20;99.90;;;;;;4432941;28;658522;-67
2021/04/25 06:13:14;;;;;;;63.37;22.87;;;7.30;99.90;;;;;;4408192;28;659019;-67
2021/04/25 06:16:01;;;;;;;46.57;18.67;;;7.50;99.90;;;;;;4434112;28;657405;-66
2021/04/25 06:18:48;;;;;;;39.90;13.43;;;7.50;99.90;;;;;;4410036;28;658250;-67
2021/04/25 06:21:35;;;;;;;37.90;15.40;;;7.70;99.90;;;;;;4447282;28;658782;-66
2021/04/25 06:24:23;;;;;;;27.43;11.50;;;7.90;99.90;;;;;;4443188;28;657797;-68
2021/04/25 06:27:10;;;;;;;27.08;10.50;;;8.00;99.90;;;;;;4431727;28;658032;-66
2021/04/25 06:29:57;;;;;;;24.60;11.20;;;8.10;99.90;;;;;;4422022;28;657936;-68
2021/04/25 06:32:44;;;;;;;31.77;13.60;;;8.20;99.90;;;;;;4433139;28;657450;-66
2021/04/25 06:35:31;;;;;;;32.03;11.33;;;8.40;99.90;;;;;;4451470;28;657459;-66
2021/04/25 06:38:18;;;;;;;27.30;9.50;;;8.50;99.90;;;;;;4422196;28;657972;-66
2021/04/25 06:41:06;;;;;;;28.70;11.68;;;8.60;99.90;;;;;;4440182;28;658585;-66
2021/04/25 06:43:54;;;;;;;31.30;12.57;;;8.80;99.90;;;;;;4412412;28;657132;-66
2021/04/25 06:46:41;;;;;;;30.53;12.07;;;8.90;99.90;;;;;;4422583;28;659231;-66
2021/04/25 06:49:28;;;;;;;20.40;8.63;;;9.10;99.90;;;;;;4406668;28;657487;-66
2021/04/25 06:52:15;;;;;;;23.23;8.37;;;9.30;99.90;;;;;;4434225;28;657277;-66
2021/04/25 06:55:02;;;;;;;22.07;7.97;;;9.40;99.90;;;;;;4402190;28;656840;-67
2021/04/25 06:57:50;;;;;;;15.13;6.23;;;9.50;99.90;;;;;;4439775;28;657555;-66
2021/04/25 07:00:38;;;;;;;18.47;6.73;;;9.60;99.90;;;;;;4417679;28;656599;-67
2021/04/25 07:03:25;;;;;;;16.58;5.95;;;9.70;99.90;;;;;;4435183;28;657806;-66
2021/04/25 07:06:12;;;;;;;12.50;4.80;;;9.80;99.90;;;;;;4395336;28;657494;-67
2021/04/25 07:08:59;;;;;;;16.05;6.32;;;9.80;93.90;;;;;;4436553;28;657194;-66
2021/04/25 07:11:46;;;;;;;12.40;4.17;;;9.70;94.50;;;;;;4423437;28;657161;-66
2021/04/25 07:14:34;;;;;;;9.50;4.60;;;9.80;94.00;;;;;;4412791;28;657354;-67
2021/04/25 07:17:21;;;;;;;10.67;3.60;;;9.90;91.50;;;;;;4429243;28;655740;-68
2021/04/25 07:20:10;;;;;;;8.77;3.33;;;10.00;85.80;;;;;;4396950;28;656689;-67
2021/04/25 07:22:59;;;;;;;10.37;3.90;;;9.80;85.70;;;;;;4398361;28;656784;-68
2021/04/25 07:25:46;;;;;;;10.53;4.47;;;9.80;83.30;;;;;;4428938;28;656470;-66
2021/04/25 07:28:34;;;;;;;7.53;3.40;;;9.90;81.60;;;;;;4410400;28;656536;-67
2021/04/25 07:31:24;;;;;;;12.20;3.97;;;9.80;76.80;;;;;;4419156;28;656123;-66
2021/04/25 07:34:11;;;;;;;12.90;4.50;;;9.80;80.40;;;;;;4417424;28;656922;-66
2021/04/25 07:36:58;;;;;;;14.20;5.63;;;9.90;78.50;;;;;;4404270;28;656584;-67
2021/04/25 07:39:45;;;;;;;9.97;4.70;;;10.00;77.50;;;;;;4426624;28;657391;-67
2021/04/25 07:42:32;;;;;;;16.07;6.10;;;10.10;76.70;;;;;;4421122;28;656913;-67
2021/04/25 07:45:19;;;;;;;16.03;5.43;;;10.30;78.80;;;;;;4435923;28;657387;-68
2021/04/25 07:48:08;;;;;;;17.83;5.83;;;10.30;75.60;;;;;;4416425;28;657879;-66
2021/04/25 07:50:56;;;;;;;18.80;6.90;;;10.40;76.20;;;;;;4401699;28;658474;-66
2021/04/25 07:53:43;;;;;;;12.83;5.73;;;10.30;76.10;;;;;;4413608;28;657501;-66
2021/04/25 07:56:31;;;;;;;13.30;5.47;;;10.50;77.20;;;;;;4427815;28;658434;-67
2021/04/25 07:59:18;;;;;;;14.67;5.83;;;10.60;75.00;;;;;;4404974;28;657562;-66
2021/04/25 08:02:05;;;;;;;13.93;6.60;;;10.70;73.10;;;;;;4425066;28;658912;-66
2021/04/25 08:04:53;;;;;;;20.83;7.20;;;10.70;72.70;;;;;;4388541;28;659197;-67
2021/04/25 08:07:40;;;;;;;17.07;7.43;;;10.60;74.60;;;;;;4433124;28;659636;-67
2021/04/25 08:10:28;;;;;;;18.57;8.17;;;10.50;75.70;;;;;;4408958;28;657996;-67
2021/04/25 08:13:15;;;;;;;28.27;11.17;;;10.60;77.10;;;;;;4430949;28;658439;-67
2021/04/25 08:16:02;;;;;;;19.53;8.70;;;11.10;80.10;;;;;;4419290;28;658158;-68
2021/04/25 08:18:49;;;;;;;20.77;7.27;;;11.20;76.20;;;;;;4405346;28;658963;-67
2021/04/25 08:21:37;;;;;;;9.57;4.30;;;11.10;75.40;;;;;;4424094;28;657505;-66
2021/04/25 08:24:24;;;;;;;30.35;11.70;;;10.80;69.10;;;;;;4409303;28;658110;-66
2021/04/25 08:27:12;;;;;;;13.70;4.90;;;10.80;70.70;;;;;;4434479;28;658943;-66
2021/04/25 08:29:59;;;;;;;8.13;3.80;;;11.00;71.70;;;;;;4395392;28;658016;-67
2021/04/25 08:32:46;;;;;;;6.93;3.30;;;10.90;68.90;;;;;;4431583;28;657810;-67
2021/04/25 08:35:33;;;;;;;9.87;3.47;;;10.90;62.60;;;;;;4418274;28;656487;-66
2021/04/25 08:38:21;;;;;;;7.57;3.07;;;10.70;63.20;;;;;;4423374;28;657391;-66
2021/04/25 08:41:09;;;;;;;10.23;4.03;;;11.00;62.50;;;;;;4407964;28;656523;-66
2021/04/25 08:43:56;;;;;;;13.53;6.60;;;11.10;65.30;;;;;;4428799;28;657570;-67
2021/04/25 08:46:43;;;;;;;5.27;2.77;;;11.50;67.00;;;;;;4410117;28;657946;-67
2021/04/25 08:49:30;;;;;;;5.60;2.83;;;11.50;59.40;;;;;;4433476;28;657836;-68
2021/04/25 08:52:17;;;;;;;6.10;2.70;;;11.40;59.60;;;;;;4404600;28;656824;-67
2021/04/25 08:55:06;;;;;;;8.23;2.83;;;11.30;58.10;;;;;;4431020;28;656737;-66
2021/04/25 08:57:53;;;;;;;6.57;2.43;;;11.00;56.90;;;;;;4408664;28;656613;-68
2021/04/25 09:00:40;;;;;;;6.00;2.50;;;11.10;62.90;;;;;;4432079;28;657063;-67
2021/04/25 09:03:28;;;;;;;7.97;3.00;;;10.60;57.90;;;;;;4414693;28;656769;-67
2021/04/25 09:06:15;;;;;;;7.00;2.53;;;10.30;57.50;;;;;;4427935;28;656499;-66
2021/04/25 09:09:05;;;;;;;5.23;2.20;;;10.10;58.30;;;;;;4411888;28;656389;-68
2021/04/25 09:11:53;;;;;;;6.40;2.63;;;9.90;59.60;;;;;;4407154;28;656887;-66
2021/04/25 09:14:41;;;;;;;6.73;2.70;;;9.60;59.50;;;;;;4437483;28;656563;-66
2021/04/25 09:17:28;;;;;;;7.17;2.80;;;9.60;60.10;;;;;;4416304;28;655857;-67
2021/04/25 09:20:15;;;;;;;8.83;3.03;;;9.60;61.90;;;;;;4414375;28;655986;-66
2021/04/25 09:23:03;;;;;;;7.07;2.73;;;9.70;64.00;;;;;;4411154;28;655423;-68
2021/04/25 09:25:53;;;;;;;7.40;2.70;;;9.60;60.00;;;;;;4413497;28;656753;-66
2021/04/25 09:28:41;;;;;;;6.77;2.83;;;9.70;59.00;;;;;;4400154;28;657351;-66
2021/04/25 09:31:28;;;;;;;6.50;2.60;;;10.00;59.00;;;;;;4409892;28;655717;-66
2021/04/25 09:34:24;;;;;;;7.80;2.87;;;10.00;58.50;;;;;;4430291;28;657139;-66
2021/04/25 09:37:15;;;;;;;8.95;2.85;;;9.70;59.40;;;;;;4399124;28;656644;-66
2021/04/25 09:40:06;;;;;;;5.43;2.83;;;9.50;60.00;;;;;;4402885;28;656784;-66
2021/04/25 09:42:58;;;;;;;6.55;2.47;;;9.70;60.00;;;;;;4415568;28;655411;-66
2021/04/25 09:45:46;;;;;;;5.30;2.50;;;9.90;59.30;;;;;;4393714;28;656699;-66
2021/04/25 09:48:34;;;;;;;8.20;3.20;;;10.20;60.60;;;;;;4406925;28;655643;-66
2021/04/25 09:51:23;;;;;;;6.05;2.60;;;10.40;57.90;;;;;;4428356;28;657532;-65
2021/04/25 09:54:10;;;;;;;6.07;2.93;;;10.60;57.00;;;;;;4405697;28;657648;-70
2021/04/25 09:56:58;;;;;;;5.80;2.60;;;11.20;58.30;;;;;;4390916;28;656518;-69
2021/04/25 09:59:51;;;;;;;10.67;4.50;;;11.80;57.00;;;;;;4410587;28;656811;-68
2021/04/25 10:02:59;;;;;;;9.90;5.20;;;12.20;58.30;;;;;;4386624;28;658400;-69
2021/04/25 10:05:57;;;;;;;4.53;2.90;;;12.20;56.00;;;;;;4420874;28;657216;-69
2021/04/25 10:08:48;;;;;;;5.73;3.03;;;11.60;55.70;;;;;;4391647;28;657704;-68
2021/04/25 10:11:35;;;;;;;8.50;3.63;;;11.20;56.50;;;;;;4398970;28;658179;-68
2021/04/25 10:14:23;;;;;;;6.90;3.30;;;10.80;56.10;;;;;;4409997;28;656593;-69
2021/04/25 10:17:10;;;;;;;7.07;3.07;;;10.30;58.40;;;;;;4429252;28;657095;-69
2021/04/25 10:19:58;;;;;;;10.17;3.70;;;10.20;58.30;;;;;;4421482;28;656503;-68
2021/04/25 10:22:46;;;;;;;8.77;3.73;;;10.80;60.00;;;;;;4438450;28;658754;-69
2021/04/25 10:25:34;;;;;;;9.37;3.23;;;11.50;61.60;;;;;;4413380;28;656511;-68
2021/04/25 10:28:29;;;;;;;7.43;3.27;;;11.80;57.60;;;;;;4427196;28;656794;-68
2021/04/25 10:31:18;;;;;;;5.87;2.87;;;11.90;56.50;;;;;;4399441;28;656895;-68
2021/04/25 10:34:06;;;;;;;4.07;2.28;;;11.40;54.10;;;;;;4408588;28;657492;-68
2021/04/25 10:36:59;;;;;;;5.33;3.07;;;11.00;54.60;;;;;;4415165;28;656707;-69
2021/04/25 10:39:48;;;;;;;8.37;3.37;;;10.40;57.10;;;;;;4402876;28;657044;-70
2021/04/25 10:42:37;;;;;;;8.43;3.60;;;10.30;56.00;;;;;;4414960;28;657655;-69
2021/04/25 10:45:31;;;;;;;7.80;3.60;;;10.30;55.70;;;;;;4392027;28;657106;-69
2021/04/25 10:48:29;;;;;;;6.97;3.42;;;10.40;55.50;;;;;;4368386;28;657677;-69
2021/04/25 10:51:16;;;;;;;7.03;3.27;;;10.40;56.50;;;;;;4391061;28;656826;-69
2021/04/25 10:54:04;;;;;;;8.83;3.47;;;10.40;55.90;;;;;;4394582;28;656507;-68
2021/04/25 10:57:06;;;;;;;10.57;3.37;;;10.40;55.70;;;;;;4414011;28;657137;-69
2021/04/25 10:59:53;;;;;;;12.80;3.67;;;10.70;58.00;;;;;;4367278;28;658493;-69
2021/04/25 11:02:47;;;;;;;9.33;3.57;;;10.80;59.90;;;;;;4419469;28;658783;-69
2021/04/25 11:05:42;;;;;;;10.90;3.97;;;11.10;62.60;;;;;;4413147;28;657590;-69
2021/04/25 11:08:36;;;;;;;9.47;3.93;;;11.00;60.10;;;;;;4385000;28;658152;-69
2021/04/25 11:11:32;;;;;;;6.93;3.60;;;11.30;60.80;;;;;;4412941;28;656567;-68
2021/04/25 11:14:38;;;;;;;7.83;3.93;;;11.00;60.70;;;;;;4389196;28;657552;-69
2021/04/25 11:17:31;;;;;;;11.20;4.17;;;10.50;62.50;;;;;;4389636;28;657156;-68
2021/04/25 11:20:31;;;;;;;5.80;3.47;;;10.00;60.90;;;;;;4388587;28;657690;-68
2021/04/25 11:23:31;;;;;;;6.73;3.50;;;9.70;62.20;;;;;;4389325;28;657627;-68
2021/04/25 11:26:40;;;;;;;13.33;3.67;;;9.70;61.30;;;;;;4390390;28;655603;-69
2021/04/25 11:29:59;;;;;;;12.03;3.93;;;10.00;60.70;;;;;;4397516;28;656691;-69
2021/04/25 11:32:46;;;;;;;6.17;3.80;;;10.60;62.40;;;;;;4412175;28;657476;-69
2021/04/25 11:35:34;;;;;;;10.00;3.67;;;11.00;61.10;;;;;;4424830;28;656919;-69
2021/04/25 11:38:21;;;;;;;7.77;3.60;;;11.20;61.30;;;;;;4448092;28;658134;-69
2021/04/25 11:41:08;;;;;;;9.40;3.70;;;11.10;61.80;;;;;;4430657;28;656515;-69
2021/04/25 11:43:55;;;;;;;7.30;3.67;;;11.20;58.50;;;;;;4449024;28;658169;-69
2021/04/25 11:46:42;;;;;;;6.40;2.93;;;11.50;58.60;;;;;;4429646;28;656573;-69
2021/04/25 11:49:30;;;;;;;10.07;3.70;;;11.20;57.10;;;;;;4448548;28;658468;-68
2021/04/25 11:52:18;;;;;;;6.80;3.27;;;10.90;57.70;;;;;;4444318;28;657510;-68
2021/04/25 11:55:07;;;;;;;8.33;4.00;;;10.80;57.30;;;;;;4451756;28;656898;-69
2021/04/25 11:57:54;;;;;;;8.70;4.00;;;10.60;59.00;;;;;;4429710;28;656561;-68
2021/04/25 12:00:42;;;;;;;7.43;3.23;;;10.50;59.60;;;;;;4449117;28;656882;-69
2021/04/25 12:03:29;;;;;;;6.10;3.53;;;10.70;59.60;;;;;;4425624;28;658246;-69
2021/04/25 12:06:16;;;;;;;10.30;3.03;;;10.60;62.10;;;;;;4447997;28;656538;-69
2021/04/25 12:09:04;;;;;;;8.03;3.47;;;10.40;58.60;;;;;;4428491;28;657821;-69
2021/04/25 12:11:51;;;;;;;7.77;3.57;;;10.50;59.60;;;;;;4447775;28;657106;-68
2021/04/25 12:14:38;;;;;;;6.00;2.67;;;10.50;58.60;;;;;;4429337;28;656890;-68
2021/04/25 12:17:26;;;;;;;8.50;3.33;;;10.20;58.60;;;;;;4430261;28;657895;-69
2021/04/25 12:20:13;;;;;;;6.50;3.13;;;10.20;59.80;;;;;;4411590;28;656755;-68
2021/04/25 12:23:00;;;;;;;7.13;3.37;;;9.90;60.70;;;;;;4434010;28;657537;-69
2021/04/25 12:25:47;;;;;;;6.40;2.93;;;9.80;59.70;;;;;;4425274;28;655333;-68
2021/04/25 12:28:35;;;;;;;8.67;2.77;;;10.00;59.60;;;;;;4435332;28;655710;-69
2021/04/25 12:31:23;;;;;;;7.23;2.93;;;9.90;59.70;;;;;;4411748;28;656967;-68
2021/04/25 12:34:14;;;;;;;6.38;2.50;;;9.80;59.20;;;;;;4433010;28;657056;-68
2021/04/25 12:37:01;;;;;;;6.73;2.77;;;9.80;59.50;;;;;;4409114;28;655525;-70
2021/04/25 12:39:48;;;;;;;8.60;3.23;;;9.60;60.80;;;;;;4412824;28;655554;-69
2021/04/25 12:42:35;;;;;;;7.87;3.23;;;9.70;60.30;;;;;;4431100;28;655664;-70
2021/04/25 12:45:28;;;;;;;5.90;2.83;;;9.80;60.30;;;;;;4413905;28;655950;-68
2021/04/25 12:48:29;;;;;;;6.63;2.40;;;10.00;62.90;;;;;;4408537;28;656213;-69
2021/04/25 12:51:19;;;;;;;5.13;1.97;;;9.90;59.50;;;;;;4406877;28;657382;-68
2021/04/25 12:54:08;;;;;;;6.03;2.50;;;9.90;58.40;;;;;;4408554;28;655953;-68
2021/04/25 12:56:56;;;;;;;4.60;2.33;;;9.90;59.00;;;;;;4411639;28;656511;-68
2021/04/25 12:59:43;;;;;;;6.70;2.07;;;9.90;58.20;;;;;;4412661;28;655596;-68
2021/04/25 13:02:33;;;;;;;8.23;2.73;;;10.00;55.50;;;;;;4434625;28;656693;-69
2021/04/25 13:05:20;;;;;;;6.17;2.43;;;9.90;58.20;;;;;;4406739;28;657006;-68
2021/04/25 13:08:08;;;;;;;5.10;2.20;;;9.90;57.80;;;;;;4421272;28;655431;-68
2021/04/25 13:10:55;;;;;;;5.23;2.43;;;10.10;57.50;;;;;;4434017;28;655894;-69
2021/04/25 13:13:42;;;;;;;5.20;2.13;;;10.30;57.20;;;;;;4415648;28;656719;-68
2021/04/25 13:16:29;;;;;;;8.70;2.53;;;10.50;56.90;;;;;;4446888;28;657016;-68
2021/04/25 13:19:26;;;;;;;4.70;2.00;;;10.70;56.00;;;;;;4447565;28;656948;-69
2021/04/25 13:22:13;;;;;;;5.63;2.25;;;10.70;57.50;;;;;;4428972;28;656852;-68
2021/04/25 13:25:01;;;;;;;4.27;1.80;;;11.00;55.80;;;;;;4452093;28;657352;-68
2021/04/25 13:27:48;;;;;;;6.03;1.90;;;11.30;55.90;;;;;;4429216;28;657050;-69
2021/04/25 13:30:38;;;;;;;3.87;1.83;;;11.50;53.70;;;;;;4447793;28;657220;-68
2021/04/25 13:33:26;;;;;;;6.13;2.23;;;10.90;54.30;;;;;;4423502;28;657130;-69
2021/04/25 13:36:13;;;;;;;7.00;2.07;;;10.60;54.30;;;;;;4411168;28;656525;-69
2021/04/25 13:39:00;;;;;;;5.37;1.90;;;10.20;53.90;;;;;;4432453;28;657651;-69
2021/04/25 13:41:48;;;;;;;5.10;1.80;;;10.10;53.80;;;;;;4420912;28;656883;-68
2021/04/25 13:44:35;;;;;;;4.13;1.87;;;10.20;53.90;;;;;;4430244;28;658167;-70
2021/04/25 13:47:22;;;;;;;4.10;2.27;;;10.20;56.60;;;;;;4410419;28;656438;-69
2021/04/25 13:50:10;;;;;;;7.30;2.30;;;10.20;54.40;;;;;;4433135;28;656068;-69
2021/04/25 13:52:57;;;;;;;4.07;1.80;;;10.00;53.10;;;;;;4411371;28;657227;-69
2021/04/25 13:55:44;;;;;;;5.82;2.15;;;10.40;54.10;;;;;;4433770;28;655856;-69
2021/04/25 13:58:32;;;;;;;7.25;2.17;;;10.40;54.40;;;;;;4431020;28;656979;-68
2021/04/25 14:01:20;;;;;;;6.35;1.92;;;10.80;55.60;;;;;;4414218;28;657665;-69
2021/04/25 14:04:06;;;;;;;5.73;2.30;;;10.80;53.20;;;;;;4409978;28;657076;-69
2021/04/25 14:06:53;;;;;;;2.90;1.70;;;10.40;53.70;;;;;;4413378;28;656874;-69
2021/04/25 14:09:41;;;;;;;3.37;1.70;;;9.90;55.40;;;;;;4432699;28;657061;-68
2021/04/25 14:12:28;;;;;;;4.63;2.00;;;9.70;55.50;;;;;;4414729;28;655654;-69
2021/04/25 14:15:18;;;;;;;4.00;1.80;;;10.20;54.70;;;;;;4437037;28;656109;-68
2021/04/25 14:18:05;;;;;;;4.40;1.63;;;10.80;53.60;;;;;;4401809;28;657937;-68
2021/04/25 14:20:52;;;;;;;4.50;1.67;;;10.90;54.10;;;;;;4419090;28;656827;-68